Time;durP1;ratioP1;P1;durP2;ratioP2;P2;SDS_P1;SDS_P2;PMS_P1;PMS_P2;Temp;Humidity;BMP_temperature;BMP_pressure;BME280_temperature;BME280_humidity;BME280_pressure;Samples;Min_cycle;Max_cycle;Signal;HPM_P1;HPM_P2
2021/11/07 00:00:55;;;;;;;9.30;5.68;;;;;;;24.02;45.21;95830.06;5064391;28;20028;-66
2021/11/07 00:11:05;;;;;;;8.80;6.57;;;;;;;23.96;45.31;95826.59;5064442;28;20099;-66
2021/11/07 00:13:30;;;;;;;9.60;6.47;;;;;;;23.95;45.79;95818.91;5032605;28;20116;-65
2021/11/07 00:16:00;;;;;;;8.32;6.07;;;;;;;23.93;45.28;95827.56;5064272;28;20055;-64
2021/11/07 00:18:32;;;;;;;9.13;5.70;;;;;;;23.91;45.98;95834.75;5064675;28;20076;-64
2021/11/07 00:21:07;;;;;;;8.57;5.60;;;;;;;23.89;45.74;95854.34;5065604;28;20032;-64
2021/11/07 00:26:37;;;;;;;8.20;5.97;;;;;;;23.87;45.77;95837.72;5050997;28;20513;-64
2021/11/07 00:29:00;;;;;;;8.38;5.97;;;;;;;23.86;45.57;95840.22;5063495;28;20049;-65
2021/11/07 00:41:22;;;;;;;8.25;5.93;;;;;;;23.75;45.66;95829.25;5049862;28;20028;-66
2021/11/07 00:44:09;;;;;;;8.40;5.93;;;;;;;23.80;45.99;95840.19;5052199;28;20035;-66
2021/11/07 00:46:51;;;;;;;8.88;6.30;;;;;;;23.80;45.82;95839.47;5053665;28;20016;-66
2021/11/07 00:57:15;;;;;;;8.82;6.03;;;;;;;23.73;46.15;95812.66;5067982;28;20144;-66
2021/11/07 01:02:31;;;;;;;8.85;5.97;;;;;;;23.73;45.95;95801.75;5255382;22;20539;-63
2021/11/07 01:05:01;;;;;;;10.13;6.63;;;;;;;23.71;46.06;95793.31;5046044;28;20053;-62
2021/11/07 01:07:27;;;;;;;8.43;5.40;;;;;;;23.71;45.88;95793.31;5048426;28;20041;-62
2021/11/07 01:09:53;;;;;;;8.40;6.03;;;;;;;23.70;46.15;95803.47;5048263;28;20029;-62
2021/11/07 01:12:18;;;;;;;8.35;6.15;;;;;;;23.70;45.91;95797.28;5048196;28;20048;-62
2021/11/07 01:14:44;;;;;;;8.38;6.10;;;;;;;23.69;45.84;95790.31;5047963;28;20482;-62
2021/11/07 01:17:09;;;;;;;8.60;6.05;;;;;;;23.67;46.16;95790.06;5048333;28;20036;-62
2021/11/07 01:19:36;;;;;;;8.32;5.75;;;;;;;23.66;46.46;95789.34;5048106;28;20032;-62
2021/11/07 01:22:04;;;;;;;8.98;6.28;;;;;;;23.66;45.92;95785.84;5047849;28;20025;-61
2021/11/07 01:24:36;;;;;;;9.43;6.28;;;;;;;23.62;46.04;95783.34;5047674;28;20025;-62
2021/11/07 01:27:17;;;;;;;9.00;6.40;;;;;;;23.64;46.29;95791.78;5047870;28;20029;-62
2021/11/07 01:29:47;;;;;;;8.60;6.38;;;;;;;23.63;46.33;95784.06;5047865;28;20078;-62
2021/11/07 01:32:14;;;;;;;9.40;6.60;;;;;;;23.62;46.50;95788.06;5047073;28;20028;-61
2021/11/07 01:35:00;;;;;;;7.43;6.03;;;;;;;23.62;46.37;95785.34;5047292;28;20021;-62
2021/11/07 01:37:30;;;;;;;9.43;6.43;;;;;;;23.57;46.21;95777.84;5047370;28;20564;-61
2021/11/07 01:42:33;;;;;;;8.07;5.93;;;;;;;23.60;46.33;95771.44;5029090;28;20036;-62
2021/11/07 01:45:04;;;;;;;8.95;5.93;;;;;;;23.59;46.17;95775.41;5047503;28;20037;-62
2021/11/07 01:47:31;;;;;;;8.88;6.47;;;;;;;23.58;46.13;95780.09;5047368;28;20420;-61
2021/11/07 01:49:57;;;;;;;9.30;6.47;;;;;;;23.52;46.25;95770.41;5047284;28;20041;-61
2021/11/07 01:52:25;;;;;;;8.90;6.07;;;;;;;23.56;46.60;95784.56;5029143;28;20021;-62
2021/11/07 01:55:03;;;;;;;8.85;6.20;;;;;;;23.52;46.16;95775.88;5047085;28;20685;-61
2021/11/07 01:57:29;;;;;;;9.40;6.22;;;;;;;23.55;46.13;95785.78;5046071;28;20029;-62
2021/11/07 01:59:57;;;;;;;9.30;6.63;;;;;;;23.55;46.50;95785.78;5029273;28;20028;-61
2021/11/07 02:02:26;;;;;;;8.85;5.85;;;;;;;23.54;46.07;95792.47;5046645;28;20127;-61
2021/11/07 02:04:51;;;;;;;8.68;6.15;;;;;;;23.53;46.46;95793.72;5046577;28;20206;-62
2021/11/07 02:07:17;;;;;;;9.55;6.43;;;;;;;23.53;46.40;95788.28;5028916;28;20033;-61
2021/11/07 02:09:42;;;;;;;9.50;6.07;;;;;;;23.51;46.30;95790.72;5046816;28;20032;-61
2021/11/07 02:12:08;;;;;;;8.70;6.25;;;;;;;23.52;46.11;95781.31;5046761;28;20033;-61
2021/11/07 02:14:34;;;;;;;9.07;6.53;;;;;;;23.51;46.27;95785.28;5046552;28;20048;-62
2021/11/07 02:17:00;;;;;;;8.82;6.25;;;;;;;23.50;46.35;95776.38;5045570;28;20053;-62
2021/11/07 02:19:26;;;;;;;10.00;6.50;;;;;;;23.49;46.17;95776.84;5029041;28;20037;-61
2021/11/07 02:21:51;;;;;;;8.15;5.95;;;;;;;23.48;46.27;95769.91;5028835;28;20028;-62
2021/11/07 02:24:17;;;;;;;9.85;6.90;;;;;;;23.48;46.30;95769.91;5045926;28;20017;-62
2021/11/07 02:26:51;;;;;;;9.70;6.95;;;;;;;23.49;46.48;95776.84;5045088;28;20039;-62
2021/11/07 02:29:17;;;;;;;9.55;7.22;;;;;;;23.42;46.28;95763.69;5025140;28;20025;-62
2021/11/07 02:31:42;;;;;;;9.32;6.85;;;;;;;23.45;46.17;95765.44;5028310;28;20327;-62
2021/11/07 02:34:08;;;;;;;10.32;7.28;;;;;;;23.46;46.38;95756.03;5046228;28;20033;-62
2021/11/07 02:36:33;;;;;;;9.98;6.68;;;;;;;23.46;46.64;95766.94;5046282;28;20568;-62
2021/11/07 02:38:59;;;;;;;8.90;6.68;;;;;;;23.42;46.49;95748.09;5046088;28;20012;-62
2021/11/07 02:41:24;;;;;;;8.80;6.68;;;;;;;23.43;46.12;95768.66;5011605;28;20028;-62
2021/11/07 02:43:52;;;;;;;10.82;6.80;;;;;;;23.45;46.67;95766.19;5044888;28;20435;-61
2021/11/07 02:46:18;;;;;;;9.30;6.65;;;;;;;23.45;46.46;95770.88;5045990;28;20549;-63
2021/11/07 02:48:44;;;;;;;9.68;6.50;;;;;;;23.44;46.20;95770.16;5045953;28;20029;-61
2021/11/07 02:51:10;;;;;;;10.65;6.88;;;;;;;23.44;46.14;95758.50;5046089;28;20060;-61
2021/11/07 02:53:35;;;;;;;9.38;6.43;;;;;;;23.43;46.53;95751.56;5042777;28;20525;-61
2021/11/07 02:56:01;;;;;;;9.57;7.18;;;;;;;23.42;46.24;95753.56;5028522;28;20457;-62
2021/11/07 02:58:26;;;;;;;9.38;6.78;;;;;;;23.43;46.69;95757.00;5026056;28;20060;-61
2021/11/07 03:00:52;;;;;;;9.60;7.07;;;;;;;23.44;46.81;95755.78;5025869;28;20560;-61
2021/11/07 03:03:18;;;;;;;9.80;6.65;;;;;;;23.41;46.31;95764.94;5025091;28;20534;-62
2021/11/07 03:05:43;;;;;;;9.68;6.50;;;;;;;23.37;46.46;95756.97;5025627;28;20534;-62
2021/11/07 03:08:09;;;;;;;10.23;7.22;;;;;;;23.37;46.27;95764.44;4991713;28;20038;-61
2021/11/07 03:10:34;;;;;;;8.55;6.60;;;;;;;23.39;46.35;95757.25;5007731;28;20021;-61
2021/11/07 03:13:05;;;;;;;10.00;7.30;;;;;;;23.38;46.55;95761.22;5007499;28;20025;-61
2021/11/07 03:15:32;;;;;;;10.32;7.18;;;;;;;23.39;46.77;95778.31;5025348;28;20543;-62
2021/11/07 03:17:58;;;;;;;9.07;6.57;;;;;;;23.38;46.33;95765.94;5025431;28;20036;-62
2021/11/07 03:20:23;;;;;;;10.32;7.50;;;;;;;23.38;46.69;95761.22;5008179;28;20033;-62
2021/11/07 03:22:50;;;;;;;9.77;6.72;;;;;;;23.38;46.54;95765.94;5025277;28;20500;-62
2021/11/07 03:25:15;;;;;;;10.45;6.95;;;;;;;23.37;46.81;95769.88;5007658;28;20033;-62
2021/11/07 03:27:43;;;;;;;9.23;6.70;;;;;;;23.36;46.37;95768.38;5007414;28;20033;-62
2021/11/07 03:35:45;;;;;;;9.88;6.90;;;;;;;23.36;46.34;95768.38;5025120;28;20036;-62
2021/11/07 03:38:11;;;;;;;9.63;6.43;;;;;;;23.34;46.41;95768.13;5025245;28;20072;-62
2021/11/07 03:40:36;;;;;;;11.82;7.70;;;;;;;23.34;46.70;95770.13;5025264;28;20345;-62
2021/11/07 03:43:02;;;;;;;10.27;7.50;;;;;;;23.33;46.80;95769.34;5024607;28;20030;-62
2021/11/07 03:45:27;;;;;;;9.55;6.70;;;;;;;23.34;46.88;95765.41;5024963;28;20029;-62
2021/11/07 03:47:53;;;;;;;10.35;7.15;;;;;;;23.32;46.49;95767.88;5024649;28;20422;-62
2021/11/07 03:50:20;;;;;;;9.70;6.78;;;;;;;23.33;46.71;95763.16;5025167;28;20037;-62
2021/11/07 03:52:47;;;;;;;9.90;7.53;;;;;;;23.33;46.24;95761.19;5024813;28;20017;-62
2021/11/07 03:55:13;;;;;;;10.43;6.80;;;;;;;23.30;46.96;95764.88;5007237;28;20075;-61
2021/11/07 03:57:38;;;;;;;10.00;7.00;;;;;;;23.30;46.76;95770.34;5025049;28;20033;-62
2021/11/07 04:00:07;;;;;;;8.75;6.63;;;;;;;23.31;46.78;95766.38;5024906;28;20574;-62
2021/11/07 04:02:32;;;;;;;10.15;7.57;;;;;;;23.31;46.75;95760.94;5025018;28;20032;-62
2021/11/07 04:04:59;;;;;;;9.48;6.93;;;;;;;23.31;46.41;95771.84;5024335;28;20057;-62
2021/11/07 04:07:25;;;;;;;10.63;7.22;;;;;;;23.31;46.70;95777.28;5025326;28;20112;-62
2021/11/07 04:09:50;;;;;;;10.43;6.93;;;;;;;23.29;46.47;95774.31;5024859;28;20171;-62
2021/11/07 04:12:16;;;;;;;10.38;7.15;;;;;;;23.30;46.48;95775.78;5024648;28;20017;-62
2021/11/07 04:14:43;;;;;;;11.05;7.18;;;;;;;23.26;46.82;95769.84;5024653;28;20029;-62
2021/11/07 04:17:08;;;;;;;11.02;8.15;;;;;;;23.29;46.68;95777.03;5007548;28;20032;-62
2021/11/07 04:19:35;;;;;;;10.68;7.40;;;;;;;23.28;46.82;95778.28;5024797;28;20021;-62
2021/11/07 04:22:04;;;;;;;8.80;6.60;;;;;;;23.29;46.63;95779.78;5024534;28;20021;-61
2021/11/07 04:24:30;;;;;;;11.15;7.28;;;;;;;23.24;46.59;95772.28;5007137;28;20495;-62
2021/11/07 04:26:55;;;;;;;11.30;7.30;;;;;;;23.28;46.53;95767.38;5024357;28;20025;-62
2021/11/07 04:29:21;;;;;;;11.82;7.55;;;;;;;23.28;46.50;95761.91;5006998;28;20426;-62
2021/11/07 04:31:46;;;;;;;9.80;7.05;;;;;;;23.22;46.40;95752.97;5025676;28;20385;-62
2021/11/07 04:34:12;;;;;;;10.18;7.00;;;;;;;23.27;46.60;95757.69;5012960;28;20487;-61
2021/11/07 04:36:37;;;;;;;8.75;7.25;;;;;;;23.24;46.86;95750.50;5026441;28;20030;-61
2021/11/07 04:39:04;;;;;;;9.80;6.93;;;;;;;23.27;46.52;95754.97;5025287;28;20040;-61
2021/11/07 04:41:29;;;;;;;10.35;7.18;;;;;;;23.26;46.59;95737.16;5024608;28;20025;-61
2021/11/07 04:43:54;;;;;;;9.90;7.22;;;;;;;23.25;46.82;95752.00;5024557;28;20045;-60
2021/11/07 04:46:20;;;;;;;10.30;7.20;;;;;;;23.24;46.42;95760.66;5006579;28;20107;-61
2021/11/07 04:48:47;;;;;;;8.57;6.68;;;;;;;23.24;46.48;95755.94;5024368;28;20037;-61
2021/11/07 04:51:12;;;;;;;9.98;7.20;;;;;;;23.24;46.76;95755.94;5023061;28;20044;-61
2021/11/07 04:53:38;;;;;;;11.20;7.28;;;;;;;23.24;46.51;95755.94;5024161;28;20037;-62
2021/11/07 04:56:03;;;;;;;10.48;7.07;;;;;;;23.22;46.41;95761.16;5024429;28;20041;-61
2021/11/07 04:58:29;;;;;;;9.55;7.32;;;;;;;23.23;46.51;95776.28;5024532;28;20033;-62
2021/11/07 05:00:55;;;;;;;10.35;7.70;;;;;;;23.22;46.99;95752.97;5006713;28;20029;-62
2021/11/07 05:03:20;;;;;;;8.93;6.88;;;;;;;23.21;46.34;95756.94;5023952;28;20042;-61
2021/11/07 05:05:46;;;;;;;9.88;7.47;;;;;;;23.22;46.28;95774.78;5006287;28;20033;-62
2021/11/07 05:08:12;;;;;;;10.88;7.90;;;;;;;23.20;46.70;95766.34;5027358;28;20487;-62
2021/11/07 05:10:38;;;;;;;10.13;7.15;;;;;;;23.22;46.66;95752.97;5010708;28;20476;-62
2021/11/07 05:13:03;;;;;;;10.40;7.10;;;;;;;23.21;46.34;95753.47;5010202;28;20053;-62
2021/11/07 05:15:29;;;;;;;9.65;7.45;;;;;;;23.18;46.54;95741.56;5010157;28;20108;-62
2021/11/07 05:17:54;;;;;;;9.13;6.88;;;;;;;23.21;46.74;95751.47;5010120;28;20021;-62
2021/11/07 05:20:20;;;;;;;10.60;7.18;;;;;;;23.20;46.78;95755.47;5027720;28;20048;-62
2021/11/07 05:22:45;;;;;;;9.05;7.38;;;;;;;23.16;46.44;95754.94;5027469;28;20403;-62
2021/11/07 05:25:11;;;;;;;9.73;7.65;;;;;;;23.21;46.86;95759.66;5010036;28;20076;-62
2021/11/07 05:27:37;;;;;;;9.57;6.75;;;;;;;23.20;46.68;95755.47;5027562;28;20493;-63
2021/11/07 05:30:04;;;;;;;10.98;7.43;;;;;;;23.20;46.70;95760.91;5009802;28;20018;-61
2021/11/07 05:32:29;;;;;;;9.27;6.93;;;;;;;23.19;46.83;95762.13;5027744;28;20017;-62
2021/11/07 05:34:55;;;;;;;9.18;7.07;;;;;;;23.19;46.63;95764.84;5027309;28;20087;-62
2021/11/07 05:37:20;;;;;;;11.25;7.60;;;;;;;23.20;46.89;95763.63;5027270;28;20030;-62
2021/11/07 05:39:46;;;;;;;10.05;7.32;;;;;;;23.20;46.43;95765.59;5027557;28;20021;-62
2021/11/07 05:42:12;;;;;;;8.70;7.10;;;;;;;23.19;46.37;95758.66;5026998;28;20025;-61
2021/11/07 05:44:38;;;;;;;10.02;7.20;;;;;;;23.18;46.58;95768.81;5027041;28;20585;-62
2021/11/07 05:47:04;;;;;;;10.02;7.05;;;;;;;23.18;46.46;95766.09;5027054;28;20034;-62
2021/11/07 05:49:29;;;;;;;9.60;7.35;;;;;;;23.18;46.55;95757.91;5027421;28;20060;-62
2021/11/07 05:51:55;;;;;;;8.77;7.10;;;;;;;23.18;46.71;95763.34;5009413;28;20021;-62
2021/11/07 05:54:20;;;;;;;10.70;7.13;;;;;;;23.19;46.72;95759.41;5011258;28;20020;-66
2021/11/07 05:56:45;;;;;;;9.15;6.70;;;;;;;23.17;46.41;95758.41;5039981;28;20617;-62
2021/11/07 05:59:11;;;;;;;8.90;6.72;;;;;;;23.20;46.83;95766.34;5020005;28;20046;-66
2021/11/07 06:01:36;;;;;;;10.23;7.20;;;;;;;23.13;46.65;95755.91;5044493;28;20083;-62
2021/11/07 06:04:03;;;;;;;10.15;7.25;;;;;;;23.22;46.64;95769.31;5025328;28;20045;-62
2021/11/07 06:06:28;;;;;;;9.30;6.70;;;;;;;23.23;46.41;95776.28;5025369;28;20029;-63
2021/11/07 06:08:54;;;;;;;9.43;6.82;;;;;;;23.19;46.64;95769.56;5016480;28;20025;-64
2021/11/07 06:11:20;;;;;;;8.93;6.60;;;;;;;23.19;46.95;95775.75;5035829;28;20032;-63
2021/11/07 06:13:46;;;;;;;10.82;6.97;;;;;;;23.25;47.04;95790.16;5024581;28;20159;-63
2021/11/07 06:16:11;;;;;;;8.93;6.50;;;;;;;23.26;46.79;95786.19;5007682;28;20029;-62
2021/11/07 06:18:37;;;;;;;9.30;7.18;;;;;;;23.25;46.92;95789.41;5024216;28;20033;-63
2021/11/07 06:21:02;;;;;;;9.73;7.03;;;;;;;23.25;47.00;95794.88;5025456;28;20103;-63
2021/11/07 06:23:27;;;;;;;8.35;6.70;;;;;;;23.24;46.92;95794.09;5025620;28;20040;-62
2021/11/07 06:25:53;;;;;;;9.77;6.93;;;;;;;23.27;46.97;95798.56;5025609;28;20029;-62
2021/11/07 06:28:20;;;;;;;9.27;6.60;;;;;;;23.27;46.73;95798.56;5025611;28;20025;-62
2021/11/07 06:30:48;;;;;;;9.48;7.15;;;;;;;23.28;47.05;95789.16;5026006;28;20119;-65
2021/11/07 06:33:13;;;;;;;9.48;7.22;;;;;;;23.31;46.83;95792.91;5017428;28;20316;-68
2021/11/07 06:35:39;;;;;;;17.27;10.80;;;;;;;23.12;45.85;95789.88;5017523;28;20471;-70
2021/11/07 06:38:04;;;;;;;12.40;9.20;;;;;;;23.04;46.18;95797.00;5023323;28;20048;-63
2021/11/07 06:40:30;;;;;;;10.35;7.28;;;;;;;23.15;46.93;95807.19;5025144;28;20578;-63
2021/11/07 06:42:57;;;;;;;11.93;8.27;;;;;;;23.18;47.28;95801.50;5025259;28;20057;-63
2021/11/07 06:45:23;;;;;;;10.77;7.53;;;;;;;23.24;47.35;95794.09;5025989;28;20042;-63
2021/11/07 06:47:49;;;;;;;10.75;7.47;;;;;;;23.28;47.23;95783.72;5040458;28;20029;-63
2021/11/07 06:50:14;;;;;;;10.52;7.95;;;;;;;23.40;47.01;95790.69;5024278;28;20029;-64
2021/11/07 06:52:40;;;;;;;10.65;7.57;;;;;;;23.47;47.37;95806.59;5025635;28;20028;-62
2021/11/07 06:55:06;;;;;;;10.05;7.68;;;;;;;23.55;46.46;95802.16;5025495;28;20152;-62
2021/11/07 06:57:32;;;;;;;9.70;7.53;;;;;;;23.63;46.79;95797.72;5024214;28;20021;-63
2021/11/07 06:59:57;;;;;;;9.73;7.22;;;;;;;23.77;46.03;95804.97;5025927;28;20509;-62
2021/11/07 07:02:24;;;;;;;10.25;7.43;;;;;;;23.88;46.33;95806.50;5025284;28;20036;-63
2021/11/07 07:04:49;;;;;;;10.52;7.13;;;;;;;23.97;46.16;95806.25;5041640;28;20033;-63
2021/11/07 07:07:15;;;;;;;10.27;7.22;;;;;;;24.09;45.53;95807.75;5044488;28;20507;-64
2021/11/07 07:09:54;;;;;;;9.55;7.25;;;;;;;24.18;45.15;95815.69;5042695;28;20021;-62
2021/11/07 07:12:29;;;;;;;9.88;7.30;;;;;;;24.33;45.08;95810.03;5043821;28;20044;-62
2021/11/07 07:15:06;;;;;;;9.73;7.32;;;;;;;24.44;45.08;95806.06;5044035;28;20039;-61
2021/11/07 07:25:52;;;;;;;8.52;6.95;;;;;;;24.91;44.29;95799.53;5026404;28;20029;-62
2021/11/07 07:28:11;;;;;;;9.98;7.65;;;;;;;25.04;43.79;95792.34;5038377;28;20040;-62
2021/11/07 07:35:50;;;;;;;12.73;7.25;;;;;;;25.26;43.17;95781.34;5045253;28;20117;-63
2021/11/07 07:38:15;;;;;;;10.05;7.07;;;;;;;25.38;42.78;95777.28;5044891;28;20270;-63
2021/11/07 07:40:41;;;;;;;8.82;6.63;;;;;;;25.44;42.59;95775.28;5027071;28;20020;-63
2021/11/07 07:43:06;;;;;;;10.25;7.20;;;;;;;25.49;42.63;95778.00;5044675;28;20025;-64
2021/11/07 07:45:31;;;;;;;10.10;6.72;;;;;;;25.51;42.41;95780.22;5044960;28;20059;-62
2021/11/07 07:47:57;;;;;;;11.55;7.50;;;;;;;25.57;42.61;95789.13;5044459;28;20055;-62
2021/11/07 07:50:23;;;;;;;10.82;7.28;;;;;;;25.67;42.32;95784.91;5010622;28;20095;-63
2021/11/07 07:52:50;;;;;;;9.15;7.03;;;;;;;25.74;42.14;95785.09;5044574;28;20541;-63
2021/11/07 07:55:16;;;;;;;11.60;8.43;;;;;;;25.84;41.92;95775.34;5043934;28;20178;-63
2021/11/07 07:57:42;;;;;;;9.77;7.55;;;;;;;25.80;42.05;95786.56;5043795;28;20486;-62
2021/11/07 08:00:09;;;;;;;10.40;6.72;;;;;;;25.84;42.17;95791.75;5026436;28;20086;-63
2021/11/07 08:02:34;;;;;;;9.88;7.40;;;;;;;25.87;41.72;95780.56;5043585;28;20510;-63
2021/11/07 08:05:00;;;;;;;9.40;6.70;;;;;;;25.89;42.01;95778.03;5043648;28;20049;-62
2021/11/07 08:07:27;;;;;;;10.27;7.18;;;;;;;25.97;41.67;95773.50;5044274;28;20428;-62
2021/11/07 08:09:54;;;;;;;11.18;7.05;;;;;;;26.00;41.74;95777.97;5026651;28;20043;-62
2021/11/07 08:12:20;;;;;;;9.85;6.95;;;;;;;26.12;41.60;95779.38;5044265;28;20033;-63
2021/11/07 08:14:46;;;;;;;9.57;7.18;;;;;;;26.16;42.19;95785.31;5026376;28;20064;-62
2021/11/07 08:17:12;;;;;;;10.00;7.05;;;;;;;26.13;42.36;95780.88;5043626;28;20017;-63
2021/11/07 08:19:38;;;;;;;12.75;7.15;;;;;;;26.17;42.02;95784.06;5041859;28;20036;-62
2021/11/07 08:22:03;;;;;;;10.63;7.63;;;;;;;26.21;41.85;95787.28;5043990;28;20730;-62
2021/11/07 08:24:30;;;;;;;11.65;7.53;;;;;;;26.27;41.19;95785.22;5043636;28;20025;-62
2021/11/07 08:26:55;;;;;;;12.48;7.65;;;;;;;26.23;41.61;95773.81;5039581;28;20064;-62
2021/11/07 08:29:22;;;;;;;10.88;7.05;;;;;;;26.27;41.34;95757.84;5043925;28;20472;-62
2021/11/07 08:31:51;;;;;;;11.27;6.90;;;;;;;26.34;41.18;95757.34;5044039;28;20039;-62
2021/11/07 08:34:16;;;;;;;11.60;7.70;;;;;;;26.32;41.40;95754.34;5026652;28;20029;-63
2021/11/07 08:39:15;;;;;;;10.95;7.72;;;;;;;26.32;41.04;95743.38;5026346;28;20052;-63
2021/11/07 08:41:55;;;;;;;9.68;7.07;;;;;;;26.41;40.96;95752.03;5045678;28;20035;-63
2021/11/07 09:00:30;;;;;;;10.30;7.20;;;;;;;-140.79;100.00;63287.88;5048381;28;20055;-67
2021/11/07 09:08:16;;;;;;;13.00;7.53;;;;;;;-140.79;100.00;63287.88;5031768;28;20415;-66
2021/11/07 09:10:43;;;;;;;11.23;7.03;;;;;;;-140.79;100.00;63287.88;5047511;28;20374;-66
2021/11/07 09:13:09;;;;;;;16.27;11.40;;;;;;;-140.79;100.00;63287.88;5047677;28;20063;-63
2021/11/07 09:15:37;;;;;;;17.52;11.35;;;;;;;-140.79;100.00;63287.88;5048139;28;20458;-63
2021/11/07 09:18:03;;;;;;;14.05;9.15;;;;;;;-140.79;100.00;63287.88;5029900;28;20063;-62
2021/11/07 09:20:42;;;;;;;14.70;8.48;;;;;;;-140.79;100.00;63287.88;5047587;28;20487;-62
2021/11/07 09:28:23;;;;;;;12.63;9.05;;;;;;;-140.79;100.00;63287.88;5047496;28;20441;-62
2021/11/07 09:33:26;;;;;;;14.45;9.25;;;;;;;-140.79;100.00;63287.88;5046955;28;20013;-64
2021/11/07 09:38:44;;;;;;;12.30;8.57;;;;;;;-140.79;100.00;63287.88;5047476;28;20048;-62
2021/11/07 09:44:12;;;;;;;14.55;9.27;;;;;;;-140.79;100.00;63287.88;5046786;28;20059;-63
2021/11/07 09:47:20;;;;;;;12.75;9.15;;;;;;;-140.79;100.00;63287.88;5032290;28;20132;-62
2021/11/07 09:49:30;;;;;;;12.43;9.18;;;;;;;-140.79;100.00;63287.88;5036034;28;20044;-62
2021/11/07 09:52:01;;;;;;;14.75;8.93;;;;;;;-140.79;100.00;63287.88;5047467;28;20070;-62
2021/11/07 09:54:29;;;;;;;11.98;9.35;;;;;;;-140.79;100.00;63287.88;5030243;28;20033;-62
2021/11/07 09:56:55;;;;;;;14.55;10.15;;;;;;;-140.79;100.00;63287.88;5046898;28;20029;-63
2021/11/07 09:59:22;;;;;;;14.35;9.55;;;;;;;-140.79;100.00;63287.88;5047352;28;20029;-62
2021/11/07 10:01:50;;;;;;;13.73;9.75;;;;;;;-140.79;100.00;63287.88;5046555;28;20036;-62
2021/11/07 10:04:17;;;;;;;13.77;9.43;;;;;;;-140.79;100.00;63287.88;5046119;28;20045;-63
2021/11/07 10:06:56;;;;;;;13.98;9.73;;;;;;;-140.79;100.00;63287.88;5047133;28;20029;-62
2021/11/07 10:09:34;;;;;;;13.07;9.15;;;;;;;-140.79;100.00;63287.88;5046849;28;20025;-62
2021/11/07 10:12:10;;;;;;;13.93;9.43;;;;;;;-140.79;100.00;63287.88;5046191;28;20025;-63
2021/11/07 10:14:43;;;;;;;13.40;8.70;;;;;;;-140.79;100.00;63287.88;5046060;28;20112;-62
2021/11/07 10:17:30;;;;;;;14.13;9.35;;;;;;;-140.79;100.00;63287.88;5029172;28;20044;-71
2021/11/07 10:20:33;;;;;;;13.80;9.48;;;;;;;-140.79;100.00;63287.88;5025427;28;20021;-67
2021/11/07 10:23:03;;;;;;;14.40;9.52;;;;;;;-140.79;100.00;63287.88;5045364;28;20033;-62
2021/11/07 10:25:55;;;;;;;12.43;9.32;;;;;;;-140.79;100.00;63287.88;5046076;28;20029;-62
2021/11/07 10:28:29;;;;;;;12.73;9.45;;;;;;;-140.79;100.00;63287.88;5044586;28;20556;-62
2021/11/07 10:31:16;;;;;;;13.88;9.50;;;;;;;-140.79;100.00;63287.88;5027765;28;20025;-62
2021/11/07 10:44:35;;;;;;;13.35;9.43;;;;;;;-140.79;100.00;63287.88;5043480;28;20039;-63
2021/11/07 10:53:13;;;;;;;13.55;9.18;;;;;;;-140.79;100.00;63287.88;5030088;28;20028;-62
2021/11/07 10:55:44;;;;;;;14.25;8.65;;;;;;;-140.79;100.00;63287.88;5044527;28;20040;-62
2021/11/07 10:58:10;;;;;;;12.00;9.07;;;;;;;-140.79;100.00;63287.88;5044312;28;20106;-62
2021/11/07 11:00:46;;;;;;;13.63;9.35;;;;;;;-140.79;100.00;63287.88;5044000;28;20028;-62
2021/11/07 11:03:16;;;;;;;12.07;8.93;;;;;;;-140.79;100.00;63287.88;5043202;28;20103;-62
2021/11/07 11:06:16;;;;;;;12.20;8.90;;;;;;;-140.79;100.00;63287.88;5043850;28;20399;-62
2021/11/07 11:08:58;;;;;;;11.40;8.35;;;;;;;-140.79;100.00;63287.88;5043966;28;20458;-62
2021/11/07 11:11:28;;;;;;;13.88;8.43;;;;;;;-140.79;100.00;63287.88;5043722;28;20037;-61
2021/11/07 11:14:02;;;;;;;14.25;9.15;;;;;;;-140.79;100.00;63287.88;5043763;28;20021;-62
2021/11/07 11:25:13;;;;;;;21.23;13.77;;;;;;;-140.79;100.00;63287.88;5045377;28;20415;-62
2021/11/07 11:32:50;;;;;;;22.95;13.27;;;;;;;-140.79;100.00;63287.88;5045125;28;20025;-61
2021/11/07 11:40:26;;;;;;;18.27;12.48;;;;;;;-140.79;100.00;63287.88;5029435;28;20036;-62
2021/11/07 11:42:57;;;;;;;19.30;12.55;;;;;;;-140.79;100.00;63287.88;5026514;28;20086;-66
2021/11/07 11:45:26;;;;;;;18.50;12.45;;;;;;;-140.79;100.00;63287.88;5028629;28;20088;-66
2021/11/07 11:54:17;;;;;;;23.85;12.60;;;;;;;-140.79;100.00;63287.88;5015728;28;20056;-60
2021/11/07 12:01:07;;;;;;;;;;;;;;;-140.79;100.00;63287.88;5045568;28;20044;-60
2021/11/07 12:03:29;;;;;;;17.60;11.63;;;;;;;-140.79;100.00;63287.88;5030444;28;20154;-60
2021/11/07 12:05:59;;;;;;;16.85;11.30;;;;;;;-140.79;100.00;63287.88;5044086;28;20032;-61
2021/11/07 12:14:04;;;;;;;17.20;10.55;;;;;;;-140.79;100.00;63287.88;5044102;28;20031;-62
2021/11/07 12:16:59;;;;;;;16.85;10.07;;;;;;;-140.79;100.00;63287.88;5026880;28;20529;-62
2021/11/07 12:19:35;;;;;;;15.95;10.88;;;;;;;-140.79;100.00;63287.88;5026265;28;20029;-62
2021/11/07 12:22:04;;;;;;;18.48;11.52;;;;;;;-140.79;100.00;63287.88;5044136;28;20033;-62
2021/11/07 12:24:37;;;;;;;16.88;11.73;;;;;;;-140.79;100.00;63287.88;5043816;28;20121;-63
2021/11/07 12:27:15;;;;;;;16.52;10.85;;;;;;;-140.79;100.00;63287.88;5026364;28;20059;-62
2021/11/07 12:29:42;;;;;;;30.80;18.35;;;;;;;-140.79;100.00;63287.88;5044127;28;20037;-62
2021/11/07 12:32:08;;;;;;;20.40;12.50;;;;;;;-140.79;100.00;63287.88;5044205;28;20118;-61
2021/11/07 12:35:24;;;;;;;18.02;12.02;;;;;;;-140.79;100.00;63287.88;5008260;28;20033;-63
2021/11/07 12:41:04;;;;;;;19.75;11.95;;;;;;;-140.79;100.00;63287.88;5015213;28;20170;-60
2021/11/07 12:43:30;;;;;;;17.60;11.00;;;;;;;-140.79;100.00;63287.88;5043465;28;20063;-62
2021/11/07 12:46:00;;;;;;;18.48;11.48;;;;;;;-140.79;100.00;63287.88;5044798;28;20044;-61
2021/11/07 12:48:46;;;;;;;18.83;10.95;;;;;;;-140.79;100.00;63287.88;5044506;28;20040;-61
2021/11/07 12:51:18;;;;;;;17.52;11.23;;;;;;;-140.79;100.00;63287.88;5026203;28;20125;-61
2021/11/07 12:54:07;;;;;;;17.65;11.05;;;;;;;-140.79;100.00;63287.88;5044338;28;20048;-62
2021/11/07 12:56:56;;;;;;;17.13;11.10;;;;;;;-140.79;100.00;63287.88;5044882;28;20029;-61
2021/11/07 12:59:32;;;;;;;18.23;11.55;;;;;;;-140.79;100.00;63287.88;5045444;28;20033;-61
2021/11/07 13:02:12;;;;;;;17.85;10.60;;;;;;;-140.79;100.00;63287.88;5045333;28;20044;-61
2021/11/07 13:04:50;;;;;;;18.10;10.95;;;;;;;-140.79;100.00;63287.88;5043949;28;20064;-61
2021/11/07 13:07:23;;;;;;;17.17;11.50;;;;;;;-140.79;100.00;63287.88;5044360;28;20036;-60
2021/11/07 13:09:55;;;;;;;17.05;10.52;;;;;;;-140.79;100.00;63287.88;5044231;28;20032;-61
2021/11/07 13:12:27;;;;;;;16.58;11.07;;;;;;;-140.79;100.00;63287.88;5044668;28;20029;-60
2021/11/07 13:17:44;;;;;;;18.65;11.50;;;;;;;-140.79;100.00;63287.88;5027862;28;20025;-61
2021/11/07 13:26:27;;;;;;;16.67;9.98;;;;;;;-140.79;100.00;63287.88;5043716;28;20462;-61
2021/11/07 13:34:32;;;;;;;17.13;11.02;;;;;;;-140.79;100.00;63287.88;5024336;28;20567;-61
2021/11/07 13:37:00;;;;;;;17.73;11.00;;;;;;;-140.79;100.00;63287.88;5047418;28;20039;-61
2021/11/07 13:39:31;;;;;;;16.92;10.85;;;;;;;-140.79;100.00;63287.88;5047540;28;20181;-61
2021/11/07 13:42:00;;;;;;;16.60;11.18;;;;;;;-140.79;100.00;63287.88;5047241;28;20028;-61
2021/11/07 13:44:28;;;;;;;15.98;11.25;;;;;;;-140.79;100.00;63287.88;5029230;28;20388;-61
2021/11/07 13:47:05;;;;;;;16.48;10.27;;;;;;;-140.79;100.00;63287.88;5047295;28;20048;-61
2021/11/07 13:49:31;;;;;;;18.10;11.13;;;;;;;-140.79;100.00;63287.88;5047165;28;20514;-61
2021/11/07 13:52:02;;;;;;;19.17;10.82;;;;;;;-140.79;100.00;63287.88;5029315;28;20107;-60
2021/11/07 13:54:27;;;;;;;15.27;10.10;;;;;;;-140.79;100.00;63287.88;5028669;28;20509;-61
2021/11/07 13:56:53;;;;;;;14.52;10.13;;;;;;;-140.79;100.00;63287.88;5046673;28;20025;-61
2021/11/07 13:59:33;;;;;;;15.50;10.10;;;;;;;-140.79;100.00;63287.88;5047086;28;20037;-61
2021/11/07 14:02:00;;;;;;;13.20;9.35;;;;;;;-140.79;100.00;63287.88;5046833;28;20033;-61
2021/11/07 14:04:39;;;;;;;13.38;9.30;;;;;;;-140.79;100.00;63287.88;5046635;28;20064;-61
2021/11/07 14:07:34;;;;;;;14.13;9.38;;;;;;;-140.79;100.00;63287.88;5029842;28;20083;-61